createdAt,value
2018-09-25T00:00:48.779Z,40.66
2018-09-25T00:03:24.879Z,40.51
2018-09-25T00:06:01.342Z,41.17
2018-09-25T00:08:37.503Z,41.05
2018-09-25T00:11:14.131Z,40.87
2018-09-25T00:13:50.335Z,40.77
2018-09-25T00:16:26.678Z,40.63
2018-09-25T00:19:02.776Z,40.04
2018-09-25T00:21:39.249Z,40.85
2018-09-25T00:24:15.414Z,40.93
2018-09-25T00:26:52.014Z,40.36
2018-09-25T00:29:28.225Z,40.98
2018-09-25T00:32:04.562Z,41.56
2018-09-25T00:34:40.888Z,41.58
2018-09-25T00:37:17.294Z,41.45
2018-09-25T00:39:53.498Z,42.13
2018-09-25T00:42:29.903Z,42.57
2018-09-25T00:45:06.134Z,41.76
2018-09-25T00:47:42.594Z,42.89
2018-09-25T00:50:18.801Z,42.79
2018-09-25T00:52:55.410Z,42.74
2018-09-25T00:55:31.581Z,42.56
2018-09-25T00:58:09.575Z,42.99
2018-09-25T01:00:45.818Z,43.87
2018-09-25T01:03:22.386Z,43.09
2018-09-25T01:05:58.529Z,43.90
2018-09-25T01:08:36.598Z,44.40
2018-09-25T01:11:12.951Z,44.70
2018-09-25T01:13:50.235Z,43.99
2018-09-25T01:16:26.554Z,44.12
2018-09-25T01:19:03.084Z,44.19
2018-09-25T01:21:39.175Z,45.00
2018-09-25T01:24:15.613Z,45.28
2018-09-25T01:26:51.962Z,44.93
2018-09-25T01:29:28.415Z,44.97
2018-09-25T01:32:04.645Z,45.62
2018-09-25T01:34:41.401Z,45.32
2018-09-25T01:37:17.645Z,46.39
2018-09-25T01:39:54.092Z,45.50
2018-09-25T01:42:30.408Z,46.55
2018-09-25T01:45:06.993Z,46.07
2018-09-25T01:47:43.173Z,46.05
2018-09-25T01:50:19.882Z,46.34
2018-09-25T01:52:55.974Z,46.21
2018-09-25T01:55:32.709Z,46.75
2018-09-25T01:58:08.798Z,46.28
2018-09-25T02:00:45.409Z,46.34
2018-09-25T02:03:21.531Z,46.91
2018-09-25T02:05:58.002Z,47.33
2018-09-25T02:08:34.189Z,47.55
2018-09-25T02:11:10.668Z,47.54
2018-09-25T02:13:46.793Z,47.42
2018-09-25T02:16:23.201Z,46.75
2018-09-25T02:18:59.312Z,47.90
2018-09-25T02:21:35.612Z,47.53
2018-09-25T02:24:11.944Z,47.70
2018-09-25T02:26:48.162Z,47.84
2018-09-25T02:29:25.909Z,48.18
2018-09-25T02:32:02.133Z,48.54
2018-09-25T02:34:38.193Z,48.03
2018-09-25T02:37:15.225Z,47.85
2018-09-25T02:39:51.321Z,47.60
2018-09-25T02:42:27.872Z,48.15
2018-09-25T02:45:04.088Z,47.92
2018-09-25T02:47:40.129Z,48.48
2018-09-25T02:50:16.733Z,48.55
2018-09-25T02:52:52.883Z,47.60
2018-09-25T02:55:29.578Z,48.30
2018-09-25T02:58:05.805Z,48.32
2018-09-25T03:00:42.277Z,48.71
2018-09-25T03:03:18.495Z,48.41
2018-09-25T03:05:55.004Z,48.43
2018-09-25T03:08:30.313Z,48.38
2018-09-25T03:11:07.030Z,48.01
2018-09-25T03:13:43.132Z,48.99
2018-09-25T03:16:20.135Z,48.69
2018-09-25T03:18:56.301Z,49.45
2018-09-25T03:21:33.697Z,48.64
2018-09-25T03:24:10.587Z,48.63
2018-09-25T03:26:47.276Z,49.51
2018-09-25T03:29:23.420Z,49.06
2018-09-25T03:31:59.914Z,49.12
2018-09-25T03:34:36.090Z,49.63
2018-09-25T03:37:12.535Z,49.43
2018-09-25T03:39:48.680Z,49.11
2018-09-25T03:42:25.290Z,49.32
2018-09-25T03:45:01.955Z,49.76
2018-09-25T03:47:38.576Z,49.38
2018-09-25T03:50:14.660Z,49.40
2018-09-25T03:52:51.249Z,49.19
2018-09-25T03:55:27.418Z,49.71
2018-09-25T03:58:05.447Z,49.81
2018-09-25T04:00:41.586Z,49.73
2018-09-25T04:03:18.296Z,49.65
2018-09-25T04:05:55.221Z,49.92
2018-09-25T04:08:32.483Z,49.42
2018-09-25T04:11:08.584Z,49.74
2018-09-25T04:13:45.701Z,50.60
2018-09-25T04:16:21.785Z,49.68
2018-09-25T04:18:57.998Z,49.92
2018-09-25T04:21:35.255Z,49.64
2018-09-25T04:24:13.596Z,50.43
2018-09-25T04:26:51.353Z,49.55
2018-09-25T04:29:31.604Z,49.70
2018-09-25T04:32:09.640Z,49.93
2018-09-25T04:34:47.475Z,50.08
2018-09-25T04:37:23.886Z,50.25
2018-09-25T04:40:00.166Z,50.10
2018-09-25T04:42:36.742Z,49.71
2018-09-25T04:45:13.174Z,49.70
2018-09-25T04:47:49.946Z,49.93
2018-09-25T04:50:26.351Z,49.72
2018-09-25T04:53:02.802Z,49.73
2018-09-25T04:55:38.916Z,50.00
2018-09-25T04:58:15.342Z,49.01
2018-09-25T05:00:52.538Z,50.07
2018-09-25T05:03:29.189Z,49.81
2018-09-25T05:06:06.109Z,50.18
2018-09-25T05:08:44.778Z,50.45
2018-09-25T05:11:20.989Z,49.58
2018-09-25T05:13:58.060Z,49.26
2018-09-25T05:16:34.891Z,49.49
2018-09-25T05:19:11.480Z,49.54
2018-09-25T05:21:47.640Z,49.96
2018-09-25T05:24:24.888Z,49.00
2018-09-25T05:27:01.109Z,49.78
2018-09-25T05:29:37.613Z,49.34
2018-09-25T05:32:13.696Z,49.13
2018-09-25T05:34:50.690Z,49.19
2018-09-25T05:37:26.908Z,48.85
2018-09-25T05:40:03.399Z,49.31
2018-09-25T05:42:40.632Z,49.03
2018-09-25T05:45:17.105Z,48.01
2018-09-25T05:47:53.321Z,47.17
2018-09-25T05:50:31.378Z,46.05
2018-09-25T05:53:07.692Z,44.08
2018-09-25T05:55:46.247Z,42.85
2018-09-25T05:58:24.374Z,41.86
2018-09-25T06:01:00.619Z,41.59
2018-09-25T06:03:37.362Z,40.92
2018-09-25T06:06:14.882Z,39.77
2018-09-25T06:08:52.468Z,39.59
2018-09-25T06:11:28.760Z,39.97
2018-09-25T06:14:05.146Z,40.16
2018-09-25T06:22:25.639Z,40.26
2018-09-25T06:25:02.365Z,39.52
2018-09-25T06:27:38.577Z,40.08
2018-09-25T06:30:15.279Z,39.92
2018-09-25T06:32:51.468Z,39.09
2018-09-25T06:35:29.369Z,36.97
2018-09-25T06:38:05.591Z,37.51
2018-09-25T06:40:43.107Z,37.63
2018-09-25T06:43:20.221Z,37.01
2018-09-25T06:45:57.948Z,35.84
2018-09-25T06:48:33.363Z,35.50
2018-09-25T06:51:09.815Z,35.04
2018-09-25T06:53:45.113Z,35.62
2018-09-25T06:56:21.027Z,35.60
2018-09-25T06:58:57.323Z,34.98
2018-09-25T07:01:33.891Z,35.56
2018-09-25T07:04:10.017Z,35.65
2018-09-25T07:06:46.478Z,35.18
2018-09-25T07:09:22.593Z,34.92
2018-09-25T07:11:57.941Z,35.53
2018-09-25T07:14:33.145Z,35.26
2018-09-25T07:17:09.361Z,35.03
2018-09-25T07:19:45.331Z,35.10
2018-09-25T07:22:22.349Z,34.54
2018-09-25T07:24:58.586Z,34.77
2018-09-25T07:27:34.241Z,35.36
2018-09-25T07:30:14.390Z,36.70
2018-09-25T07:32:50.027Z,36.78
2018-09-25T07:35:26.194Z,37.19
2018-09-25T07:38:02.089Z,37.72
2018-09-25T07:40:37.812Z,37.63
2018-09-25T07:43:13.981Z,38.07
2018-09-25T07:45:49.249Z,37.63
2018-09-25T07:48:25.383Z,37.98
2018-09-25T07:51:00.596Z,37.90
2018-09-25T07:53:39.095Z,38.60
2018-09-25T07:56:16.051Z,39.19
2018-09-25T07:58:51.361Z,38.93
2018-09-25T08:01:28.314Z,38.65
2018-09-25T08:04:02.873Z,38.28
2018-09-25T08:06:38.609Z,38.71
2018-09-25T08:09:15.947Z,38.45
2018-09-25T08:11:53.361Z,38.45
2018-09-25T08:14:28.721Z,38.02
2018-09-25T08:17:05.340Z,37.84
2018-09-25T08:19:41.326Z,38.41
2018-09-25T08:22:20.434Z,38.11
2018-09-25T08:24:56.670Z,37.18
2018-09-25T08:27:34.513Z,36.84
2018-09-25T08:30:09.106Z,36.20
2018-09-25T08:33:00.909Z,37.00
2018-09-25T08:38:34.788Z,37.35
2018-09-25T08:41:11.961Z,37.84
2018-09-25T08:43:54.218Z,36.04
2018-09-25T08:46:30.022Z,36.04
2018-09-25T08:49:05.458Z,35.27
2018-09-25T08:51:42.824Z,35.45
2018-09-25T08:54:19.330Z,35.02
2018-09-25T08:56:57.746Z,34.32
2018-09-25T08:59:34.023Z,34.61
2018-09-25T09:02:09.666Z,34.35
2018-09-25T09:04:47.002Z,33.67
2018-09-25T09:07:31.232Z,33.92
2018-09-25T09:10:07.282Z,33.38
2018-09-25T09:12:45.635Z,33.22
2018-09-25T09:15:22.934Z,33.31
2018-09-25T09:18:00.384Z,32.32
2018-09-25T09:20:37.750Z,32.83
2018-09-25T09:23:16.480Z,32.91
2018-09-25T09:25:52.737Z,32.41
2018-09-25T09:28:30.265Z,32.85
2018-09-25T09:31:08.118Z,32.44
2018-09-25T09:33:46.452Z,32.54
2018-09-25T09:36:24.345Z,31.55
2018-09-25T09:39:02.435Z,33.17
2018-09-25T09:41:38.147Z,32.57
2018-09-25T09:44:15.153Z,31.75
2018-09-25T09:46:51.305Z,31.62
2018-09-25T09:49:27.970Z,30.88
2018-09-25T09:52:04.893Z,30.78
2018-09-25T09:54:42.324Z,31.44
2018-09-25T09:57:22.541Z,30.52
2018-09-25T09:59:58.729Z,31.57
2018-09-25T10:02:35.765Z,30.33
2018-09-25T10:05:11.988Z,30.12
2018-09-25T10:07:48.386Z,29.64
2018-09-25T10:10:24.811Z,29.69
2018-09-25T10:13:02.681Z,30.84
2018-09-25T10:15:40.393Z,29.32
2018-09-25T10:18:17.578Z,29.10
2018-09-25T10:20:55.774Z,28.74
2018-09-25T10:23:32.316Z,28.29
2018-09-25T10:26:08.413Z,27.72
2018-09-25T10:28:46.504Z,28.57
2018-09-25T10:31:22.799Z,27.32
2018-09-25T10:33:59.439Z,26.40
2018-09-25T10:36:35.818Z,26.55
2018-09-25T10:39:14.344Z,26.47
2018-09-25T10:41:52.213Z,25.49
2018-09-25T10:44:29.811Z,25.35
2018-09-25T10:47:06.846Z,25.62
2018-09-25T10:49:44.401Z,26.07
2018-09-25T10:52:21.430Z,25.59
2018-09-25T10:54:59.070Z,26.21
2018-09-25T10:57:41.285Z,25.05
2018-09-25T11:00:24.250Z,24.39
2018-09-25T11:03:03.806Z,24.52
2018-09-25T11:05:42.270Z,24.51
2018-09-25T11:08:18.453Z,24.49
2018-09-25T11:10:58.540Z,24.24
2018-09-25T11:13:37.784Z,23.61
2018-09-25T11:16:14.257Z,23.57
2018-09-25T11:18:50.458Z,23.82
2018-09-25T11:21:26.902Z,24.14
2018-09-25T11:24:03.098Z,23.43
2018-09-25T11:26:40.059Z,23.14
2018-09-25T11:29:17.134Z,23.78
2018-09-25T11:31:56.329Z,23.56
2018-09-25T11:34:33.773Z,23.25
2018-09-25T11:37:09.885Z,23.09
2018-09-25T11:39:46.683Z,23.61
2018-09-25T11:42:23.546Z,23.47
2018-09-25T11:45:02.278Z,23.65
2018-09-25T11:47:38.430Z,24.25
2018-09-25T11:50:15.598Z,23.59
2018-09-25T11:52:53.410Z,23.91
2018-09-25T11:55:31.558Z,22.34
2018-09-25T11:58:08.481Z,22.82
2018-09-25T12:00:47.238Z,22.27
2018-09-25T12:03:24.249Z,21.30
2018-09-25T12:06:01.743Z,22.25
2018-09-25T12:08:38.012Z,23.15
2018-09-25T12:11:14.439Z,23.02
2018-09-25T12:13:50.887Z,23.50
2018-09-25T12:16:29.432Z,22.15
2018-09-25T12:19:07.318Z,21.53
2018-09-25T12:21:45.265Z,22.77
2018-09-25T12:24:22.426Z,22.30
2018-09-25T12:27:00.000Z,21.69
2018-09-25T12:29:36.215Z,21.33
2018-09-25T12:32:13.645Z,21.73
2018-09-25T12:34:49.828Z,21.63
2018-09-25T12:37:28.450Z,21.87
2018-09-25T12:40:05.374Z,21.36
2018-09-25T12:42:41.987Z,22.31
2018-09-25T12:45:24.969Z,22.05
2018-09-25T12:48:02.279Z,22.82
2018-09-25T12:50:38.387Z,21.83
2018-09-25T12:53:16.794Z,21.63
2018-09-25T12:55:55.029Z,22.19
2018-09-25T12:58:32.598Z,22.65
2018-09-25T13:01:09.616Z,23.13
2018-09-25T13:03:51.361Z,23.72
2018-09-25T13:06:29.271Z,23.84
2018-09-25T13:09:06.583Z,23.66
2018-09-25T13:11:42.651Z,22.82
2018-09-25T13:14:20.335Z,23.62
2018-09-25T13:16:57.501Z,22.98
2018-09-25T13:19:34.058Z,22.45
2018-09-25T13:22:10.205Z,22.80
2018-09-25T13:24:46.435Z,23.11
2018-09-25T13:27:23.912Z,22.91
2018-09-25T13:30:05.396Z,22.43
2018-09-25T13:32:44.182Z,22.48
2018-09-25T13:35:20.445Z,22.16
2018-09-25T13:37:56.947Z,22.85
2018-09-25T13:40:33.053Z,23.28
2018-09-25T13:43:09.519Z,22.83
2018-09-25T13:45:46.560Z,22.93
2018-09-25T13:48:25.568Z,21.83
2018-09-25T13:51:02.476Z,22.75
2018-09-25T13:53:49.163Z,23.00
2018-09-25T13:56:27.390Z,22.70
2018-09-25T13:59:05.605Z,22.01
2018-09-25T14:01:41.771Z,22.77
2018-09-25T14:04:18.821Z,21.85
2018-09-25T14:06:58.508Z,21.93
2018-09-25T14:09:34.685Z,21.79
2018-09-25T14:12:11.873Z,22.09
2018-09-25T14:14:49.600Z,22.53
2018-09-25T14:17:27.860Z,21.79
2018-09-25T14:20:04.617Z,22.91
2018-09-25T14:22:42.233Z,22.75
2018-09-25T14:25:18.380Z,23.02
2018-09-25T14:27:56.383Z,22.95
2018-09-25T14:30:33.947Z,23.21
2018-09-25T14:33:10.349Z,22.80
2018-09-25T14:35:46.430Z,23.44
2018-09-25T14:38:23.844Z,23.47
2018-09-25T14:41:00.061Z,23.40
2018-09-25T14:43:38.201Z,22.43
2018-09-25T14:46:14.734Z,23.16
2018-09-25T14:48:52.294Z,23.06
2018-09-25T14:54:04.326Z,23.06
2018-09-25T14:56:40.583Z,22.85
2018-09-25T14:59:17.345Z,22.41
2018-09-25T15:01:53.800Z,22.96
2018-09-25T15:04:30.251Z,22.23
2018-09-25T15:07:06.920Z,22.68
2018-09-25T15:09:44.344Z,22.98
2018-09-25T15:12:24.087Z,22.45
2018-09-25T15:15:01.794Z,22.08
2018-09-25T15:17:37.901Z,22.47
2018-09-25T15:20:14.033Z,21.91
2018-09-25T15:22:54.354Z,22.97
2018-09-25T15:25:30.621Z,22.90
2018-09-25T15:28:10.503Z,23.71
2018-09-25T15:30:47.360Z,22.87
2018-09-25T15:33:24.507Z,23.08
2018-09-25T15:36:04.099Z,23.75
2018-09-25T15:38:42.646Z,23.63
2018-09-25T15:41:21.280Z,23.72
2018-09-25T15:44:00.562Z,24.38
2018-09-25T15:46:40.819Z,24.11
2018-09-25T15:49:19.333Z,24.11
2018-09-25T15:51:58.329Z,24.55
2018-09-25T15:54:34.447Z,24.67
2018-09-25T15:57:11.559Z,23.67
2018-09-25T15:59:49.838Z,23.98
2018-09-25T16:02:29.961Z,24.25
2018-09-25T16:05:07.224Z,24.03
2018-09-25T16:07:44.052Z,23.77
2018-09-25T16:10:20.271Z,23.94
2018-09-25T16:12:57.246Z,23.27
2018-09-25T16:15:34.185Z,23.47
2018-09-25T16:18:13.672Z,23.10
2018-09-25T16:20:49.706Z,24.24
2018-09-25T16:23:26.572Z,24.30
2018-09-25T16:26:03.381Z,23.83
2018-09-25T16:28:40.894Z,24.05
2018-09-25T16:31:18.094Z,24.71
2018-09-25T16:33:56.204Z,25.29
2018-09-25T16:36:32.670Z,25.49
2018-09-25T16:39:09.214Z,26.02
2018-09-25T16:41:45.356Z,26.00
2018-09-25T16:44:23.096Z,27.41
2018-09-25T16:46:59.212Z,28.17
2018-09-25T16:49:35.359Z,28.92
2018-09-25T16:52:11.522Z,28.66
2018-09-25T16:54:48.921Z,28.56
2018-09-25T16:57:27.076Z,28.90
2018-09-25T17:00:04.324Z,29.59
2018-09-25T17:02:41.393Z,29.63
2018-09-25T17:05:18.636Z,29.44
2018-09-25T17:07:54.686Z,30.46
2018-09-25T17:13:12.479Z,31.18
2018-09-25T17:15:49.566Z,31.12
2018-09-25T17:18:26.846Z,30.73
2018-09-25T17:21:03.538Z,31.81
2018-09-25T17:23:39.701Z,31.50
2018-09-25T17:26:17.984Z,32.04
2018-09-25T17:28:55.774Z,32.28
2018-09-25T17:31:35.677Z,32.12
2018-09-25T17:34:13.736Z,32.58
2018-09-25T17:36:50.409Z,32.18
2018-09-25T17:39:29.770Z,33.17
2018-09-25T17:42:05.816Z,33.29
2018-09-25T17:44:42.023Z,33.33
2018-09-25T17:47:19.599Z,33.04
2018-09-25T17:49:56.094Z,33.49
2018-09-25T17:52:32.273Z,34.08
2018-09-25T17:55:08.485Z,34.02
2018-09-25T17:57:45.994Z,34.25
2018-09-25T18:00:25.111Z,34.27
2018-09-25T18:03:04.508Z,34.87
2018-09-25T18:05:41.351Z,34.59
2018-09-25T18:08:17.968Z,34.86
2018-09-25T18:10:54.205Z,35.45
2018-09-25T18:13:30.941Z,35.30
2018-09-25T18:16:07.045Z,35.03
2018-09-25T18:18:43.580Z,35.48
2018-09-25T18:21:21.993Z,35.61
2018-09-25T18:24:02.977Z,36.06
2018-09-25T18:26:48.326Z,36.60
2018-09-25T18:29:24.784Z,36.50
2018-09-25T18:32:04.643Z,36.66
2018-09-25T18:34:41.245Z,36.90
2018-09-25T18:37:17.385Z,36.98
2018-09-25T18:39:56.105Z,36.61
2018-09-25T18:42:33.801Z,36.38
2018-09-25T18:45:11.601Z,36.54
2018-09-25T18:47:47.706Z,36.97
2018-09-25T18:50:25.346Z,37.02
2018-09-25T18:53:01.742Z,37.21
2018-09-25T18:55:39.515Z,36.90
2018-09-25T18:58:17.733Z,36.94
2018-09-25T19:00:53.997Z,38.01
2018-09-25T19:03:31.494Z,37.23
2018-09-25T19:06:08.324Z,37.84
2018-09-25T19:08:44.659Z,37.76
2018-09-25T19:11:23.866Z,38.63
2018-09-25T19:14:02.895Z,38.69
2018-09-25T19:16:41.367Z,38.22
2018-09-25T19:19:19.414Z,38.12
2018-09-25T19:21:58.595Z,38.05
2018-09-25T19:24:35.799Z,38.14
2018-09-25T19:27:22.687Z,37.84
2018-09-25T19:30:14.475Z,38.56
2018-09-25T19:32:53.853Z,37.95
2018-09-25T19:35:30.053Z,38.47
2018-09-25T19:38:07.469Z,37.99
2018-09-25T19:40:44.137Z,38.21
2018-09-25T19:43:24.448Z,38.62
2018-09-25T19:46:00.517Z,38.55
2018-09-25T19:48:38.680Z,38.23
2018-09-25T19:51:15.402Z,38.98
2018-09-25T19:53:52.688Z,38.75
2018-09-25T19:56:28.831Z,38.89
2018-09-25T19:59:06.310Z,38.34
2018-09-25T20:01:42.444Z,38.56
2018-09-25T20:04:19.181Z,38.19
2018-09-25T20:06:57.146Z,38.49
2018-09-25T20:09:33.801Z,37.95
2018-09-25T20:12:10.841Z,37.94
2018-09-25T20:14:47.349Z,37.91
2018-09-25T20:17:24.450Z,38.03
2018-09-25T20:20:02.391Z,37.97
2018-09-25T20:22:40.342Z,38.28
2018-09-25T20:25:17.281Z,37.64
2018-09-25T20:27:57.298Z,38.47
2018-09-25T20:30:36.768Z,38.75
2018-09-25T20:33:14.450Z,38.85
2018-09-25T20:35:52.094Z,38.67
2018-09-25T20:38:29.903Z,38.80
2018-09-25T20:41:06.081Z,38.46
2018-09-25T20:43:44.199Z,39.26
2018-09-25T20:46:20.383Z,38.61
2018-09-25T20:48:56.636Z,39.06
2018-09-25T20:51:32.794Z,39.02
2018-09-25T20:54:10.127Z,38.89
2018-09-25T20:56:46.337Z,39.89
2018-09-25T20:59:22.426Z,39.61
2018-09-25T21:01:58.620Z,39.78
2018-09-25T21:04:35.297Z,40.03
2018-09-25T21:07:12.082Z,40.12
2018-09-25T21:09:49.825Z,40.04
2018-09-25T21:12:26.680Z,40.44
2018-09-25T21:15:03.703Z,40.47
2018-09-25T21:17:41.414Z,41.25
2018-09-25T21:20:17.953Z,41.24
2018-09-25T21:22:54.257Z,41.51
2018-09-25T21:25:32.639Z,40.73
2018-09-25T21:28:08.856Z,41.16
2018-09-25T21:30:46.571Z,41.57
2018-09-25T21:33:23.289Z,41.17
2018-09-25T21:36:02.190Z,41.94
2018-09-25T21:38:38.271Z,41.62
2018-09-25T21:41:17.041Z,41.65
2018-09-25T21:43:53.743Z,41.84
2018-09-25T21:46:30.641Z,41.15
2018-09-25T21:49:07.493Z,41.70
2018-09-25T21:51:44.021Z,41.79
2018-09-25T21:54:20.279Z,41.89
2018-09-25T21:56:56.634Z,42.46
2018-09-25T21:59:33.060Z,42.69
2018-09-25T22:02:09.531Z,42.66
2018-09-25T22:04:48.842Z,43.70
2018-09-25T22:07:25.769Z,43.71
2018-09-25T22:10:02.013Z,43.29
2018-09-25T22:12:39.848Z,43.91
2018-09-25T22:15:16.530Z,43.20
2018-09-25T22:17:53.509Z,43.81
2018-09-25T22:20:31.662Z,43.89
2018-09-25T22:23:06.884Z,43.92
2018-09-25T22:25:44.108Z,44.21
2018-09-25T22:28:20.306Z,43.85
2018-09-25T22:30:56.921Z,43.75
2018-09-25T22:33:33.609Z,43.84
2018-09-25T22:36:11.002Z,44.04
2018-09-25T22:38:47.152Z,44.52
2018-09-25T22:41:24.347Z,44.54
2018-09-25T22:44:00.419Z,44.68
2018-09-25T22:46:37.054Z,44.41
2018-09-25T22:49:15.156Z,45.02
2018-09-25T22:51:51.525Z,44.69
2018-09-25T22:54:27.570Z,44.37
2018-09-25T22:57:05.745Z,45.43
2018-09-25T22:59:41.933Z,44.79
2018-09-25T23:02:18.715Z,44.65
2018-09-25T23:04:54.762Z,45.40
2018-09-25T23:07:32.184Z,45.11
2018-09-25T23:10:08.313Z,44.69
2018-09-25T23:12:45.068Z,44.69
2018-09-25T23:15:22.353Z,45.19
2018-09-25T23:17:58.785Z,44.91
2018-09-25T23:20:35.029Z,44.35
2018-09-25T23:23:11.768Z,44.27
2018-09-25T23:25:48.007Z,44.90
2018-09-25T23:28:24.566Z,44.54
2018-09-25T23:31:00.657Z,45.51
2018-09-25T23:33:37.383Z,44.54
2018-09-25T23:36:13.615Z,46.02
2018-09-25T23:38:52.066Z,45.50
2018-09-25T23:41:27.102Z,45.20
2018-09-25T23:44:04.719Z,46.04
2018-09-25T23:54:01.123Z,45.51
2018-09-25T23:56:39.983Z,46.35
2018-09-25T23:59:17.280Z,46.42
